sensor_id;sensor_type;location;lat;lon;timestamp;temperature;humidity
52323;DHT22;38263;52.920;6.238;2022-09-17T00:00:37;11.80;99.90
52323;DHT22;38263;52.920;6.238;2022-09-17T00:03:03;11.70;99.90
52323;DHT22;38263;52.920;6.238;2022-09-17T00:05:29;11.80;99.90
52323;DHT22;38263;52.920;6.238;2022-09-17T00:07:55;11.60;99.90
52323;DHT22;38263;52.920;6.238;2022-09-17T00:10:20;11.90;99.90
52323;DHT22;38263;52.920;6.238;2022-09-17T00:12:48;11.80;99.90
52323;DHT22;38263;52.920;6.238;2022-09-17T00:15:14;11.90;99.90
52323;DHT22;38263;52.920;6.238;2022-09-17T00:17:40;12.00;99.90
52323;DHT22;38263;52.920;6.238;2022-09-17T00:20:07;12.00;99.90
52323;DHT22;38263;52.920;6.238;2022-09-17T00:22:37;11.70;99.90
52323;DHT22;38263;52.920;6.238;2022-09-17T00:25:04;11.90;99.90
52323;DHT22;38263;52.920;6.238;2022-09-17T00:27:30;11.80;99.90
52323;DHT22;38263;52.920;6.238;2022-09-17T00:29:56;11.80;99.90
52323;DHT22;38263;52.920;6.238;2022-09-17T00:32:21;11.90;99.90
52323;DHT22;38263;52.920;6.238;2022-09-17T00:34:48;11.80;99.90
52323;DHT22;38263;52.920;6.238;2022-09-17T00:37:17;11.90;99.90
52323;DHT22;38263;52.920;6.238;2022-09-17T00:39:42;11.80;99.90
52323;DHT22;38263;52.920;6.238;2022-09-17T00:42:12;11.80;99.90
52323;DHT22;38263;52.920;6.238;2022-09-17T00:44:42;11.80;99.90
52323;DHT22;38263;52.920;6.238;2022-09-17T00:47:36;11.80;99.90
52323;DHT22;38263;52.920;6.238;2022-09-17T00:50:14;11.80;99.90
52323;DHT22;38263;52.920;6.238;2022-09-17T00:52:43;11.80;99.90
52323;DHT22;38263;52.920;6.238;2022-09-17T00:55:22;11.60;99.90
52323;DHT22;38263;52.920;6.238;2022-09-17T00:57:50;11.60;99.90
52323;DHT22;38263;52.920;6.238;2022-09-17T01:00:16;11.50;99.90
52323;DHT22;38263;52.920;6.238;2022-09-17T01:02:43;11.30;99.90
52323;DHT22;38263;52.920;6.238;2022-09-17T01:05:10;11.50;99.90
52323;DHT22;38263;52.920;6.238;2022-09-17T01:10:46;11.30;99.90
52323;DHT22;38263;52.920;6.238;2022-09-17T01:16:52;11.40;99.90
52323;DHT22;38263;52.920;6.238;2022-09-17T01:19:24;11.50;99.90
52323;DHT22;38263;52.920;6.238;2022-09-17T01:22:10;11.50;99.90
52323;DHT22;38263;52.920;6.238;2022-09-17T01:31:00;11.50;99.90
52323;DHT22;38263;52.920;6.238;2022-09-17T01:33:14;11.50;99.90
52323;DHT22;38263;52.920;6.238;2022-09-17T01:35:52;11.60;99.90
52323;DHT22;38263;52.920;6.238;2022-09-17T01:38:30;11.30;99.90
52323;DHT22;38263;52.920;6.238;2022-09-17T01:41:18;11.60;99.90
52323;DHT22;38263;52.920;6.238;2022-09-17T01:46:43;11.40;99.90
52323;DHT22;38263;52.920;6.238;2022-09-17T01:49:14;11.40;99.90
52323;DHT22;38263;52.920;6.238;2022-09-17T01:51:42;11.40;99.90
52323;DHT22;38263;52.920;6.238;2022-09-17T01:54:34;11.50;99.90
52323;DHT22;38263;52.920;6.238;2022-09-17T01:57:02;11.70;99.90
52323;DHT22;38263;52.920;6.238;2022-09-17T02:02:06;11.40;99.90
52323;DHT22;38263;52.920;6.238;2022-09-17T02:04:46;11.40;99.90
52323;DHT22;38263;52.920;6.238;2022-09-17T02:07:18;11.50;99.90
52323;DHT22;38263;52.920;6.238;2022-09-17T02:09:58;11.40;99.90
52323;DHT22;38263;52.920;6.238;2022-09-17T02:12:36;11.40;99.90
52323;DHT22;38263;52.920;6.238;2022-09-17T02:15:07;11.40;99.90
52323;DHT22;38263;52.920;6.238;2022-09-17T02:17:53;11.20;99.90
52323;DHT22;38263;52.920;6.238;2022-09-17T02:20:23;11.20;99.90
52323;DHT22;38263;52.920;6.238;2022-09-17T02:22:55;11.30;99.90
52323;DHT22;38263;52.920;6.238;2022-09-17T02:25:39;11.30;99.90
52323;DHT22;38263;52.920;6.238;2022-09-17T02:31:07;11.20;99.90
52323;DHT22;38263;52.920;6.238;2022-09-17T02:33:34;11.00;99.90
52323;DHT22;38263;52.920;6.238;2022-09-17T02:36:01;11.00;99.90
52323;DHT22;38263;52.920;6.238;2022-09-17T02:38:29;11.10;99.90
52323;DHT22;38263;52.920;6.238;2022-09-17T02:52:07;10.90;99.90
52323;DHT22;38263;52.920;6.238;2022-09-17T02:57:26;10.60;99.90
52323;DHT22;38263;52.920;6.238;2022-09-17T03:00:11;10.80;99.90
52323;DHT22;38263;52.920;6.238;2022-09-17T03:02:45;10.60;99.90
52323;DHT22;38263;52.920;6.238;2022-09-17T03:05:12;10.70;99.90
52323;DHT22;38263;52.920;6.238;2022-09-17T03:07:39;10.60;99.90
52323;DHT22;38263;52.920;6.238;2022-09-17T03:10:05;10.70;99.90
52323;DHT22;38263;52.920;6.238;2022-09-17T03:12:31;10.60;99.90
52323;DHT22;38263;52.920;6.238;2022-09-17T03:17:23;10.60;99.90
52323;DHT22;38263;52.920;6.238;2022-09-17T03:19:48;10.60;99.90
52323;DHT22;38263;52.920;6.238;2022-09-17T03:22:14;10.50;99.90
52323;DHT22;38263;52.920;6.238;2022-09-17T03:24:39;10.70;99.90
52323;DHT22;38263;52.920;6.238;2022-09-17T03:27:05;10.70;99.90
52323;DHT22;38263;52.920;6.238;2022-09-17T03:29:30;10.50;99.90
52323;DHT22;38263;52.920;6.238;2022-09-17T03:34:23;10.70;99.90
52323;DHT22;38263;52.920;6.238;2022-09-17T03:36:49;10.80;99.90
52323;DHT22;38263;52.920;6.238;2022-09-17T03:39:14;10.60;99.90
52323;DHT22;38263;52.920;6.238;2022-09-17T03:41:40;10.60;99.90
52323;DHT22;38263;52.920;6.238;2022-09-17T03:44:05;10.70;99.90
52323;DHT22;38263;52.920;6.238;2022-09-17T03:48:57;10.60;99.90
52323;DHT22;38263;52.920;6.238;2022-09-17T03:51:23;10.60;99.90
52323;DHT22;38263;52.920;6.238;2022-09-17T03:53:48;10.70;99.90
52323;DHT22;38263;52.920;6.238;2022-09-17T03:56:14;10.70;99.90
52323;DHT22;38263;52.920;6.238;2022-09-17T03:58:39;10.70;99.90
52323;DHT22;38263;52.920;6.238;2022-09-17T04:01:05;10.70;99.90
52323;DHT22;38263;52.920;6.238;2022-09-17T04:03:31;10.80;99.90
52323;DHT22;38263;52.920;6.238;2022-09-17T04:05:57;10.70;99.90
52323;DHT22;38263;52.920;6.238;2022-09-17T04:08:23;10.70;99.90
52323;DHT22;38263;52.920;6.238;2022-09-17T04:10:49;10.80;99.90
52323;DHT22;38263;52.920;6.238;2022-09-17T04:13:16;10.90;99.90
52323;DHT22;38263;52.920;6.238;2022-09-17T04:15:43;10.70;99.90
52323;DHT22;38263;52.920;6.238;2022-09-17T04:18:09;10.70;99.90
52323;DHT22;38263;52.920;6.238;2022-09-17T04:20:35;10.70;99.90
52323;DHT22;38263;52.920;6.238;2022-09-17T04:23:01;10.60;99.90
52323;DHT22;38263;52.920;6.238;2022-09-17T04:25:26;10.60;99.90
52323;DHT22;38263;52.920;6.238;2022-09-17T04:27:52;10.70;99.90
52323;DHT22;38263;52.920;6.238;2022-09-17T04:30:17;10.80;99.90
52323;DHT22;38263;52.920;6.238;2022-09-17T04:35:10;10.90;99.90
52323;DHT22;38263;52.920;6.238;2022-09-17T04:37:36;10.80;99.90
52323;DHT22;38263;52.920;6.238;2022-09-17T04:40:02;10.80;99.90
52323;DHT22;38263;52.920;6.238;2022-09-17T04:42:27;10.80;99.90
52323;DHT22;38263;52.920;6.238;2022-09-17T04:44:53;10.80;99.90
52323;DHT22;38263;52.920;6.238;2022-09-17T04:47:19;10.70;99.90
52323;DHT22;38263;52.920;6.238;2022-09-17T04:49:44;10.60;99.90
52323;DHT22;38263;52.920;6.238;2022-09-17T04:52:10;10.60;99.90
52323;DHT22;38263;52.920;6.238;2022-09-17T04:54:35;10.80;99.90
52323;DHT22;38263;52.920;6.238;2022-09-17T04:57:01;10.60;99.90
52323;DHT22;38263;52.920;6.238;2022-09-17T05:01:52;10.50;99.90
52323;DHT22;38263;52.920;6.238;2022-09-17T05:04:18;10.40;99.90
52323;DHT22;38263;52.920;6.238;2022-09-17T05:06:43;10.20;99.90
52323;DHT22;38263;52.920;6.238;2022-09-17T05:09:09;10.20;99.90
52323;DHT22;38263;52.920;6.238;2022-09-17T05:11:34;10.20;99.90
52323;DHT22;38263;52.920;6.238;2022-09-17T05:14:00;10.30;99.90
52323;DHT22;38263;52.920;6.238;2022-09-17T05:16:26;10.20;99.90
52323;DHT22;38263;52.920;6.238;2022-09-17T05:18:51;10.20;99.90
52323;DHT22;38263;52.920;6.238;2022-09-17T05:21:20;10.30;99.90
52323;DHT22;38263;52.920;6.238;2022-09-17T05:23:46;10.30;99.90
52323;DHT22;38263;52.920;6.238;2022-09-17T05:26:12;10.20;99.90
52323;DHT22;38263;52.920;6.238;2022-09-17T05:28:38;10.10;99.90
52323;DHT22;38263;52.920;6.238;2022-09-17T05:31:03;10.20;99.90
52323;DHT22;38263;52.920;6.238;2022-09-17T05:35:55;10.00;99.90
52323;DHT22;38263;52.920;6.238;2022-09-17T05:38:20;10.00;99.90
52323;DHT22;38263;52.920;6.238;2022-09-17T05:40:46;10.10;99.90
52323;DHT22;38263;52.920;6.238;2022-09-17T05:43:13;10.20;99.90
52323;DHT22;38263;52.920;6.238;2022-09-17T05:45:40;10.10;99.90
52323;DHT22;38263;52.920;6.238;2022-09-17T05:48:08;10.30;99.90
52323;DHT22;38263;52.920;6.238;2022-09-17T05:50:34;10.30;99.90
52323;DHT22;38263;52.920;6.238;2022-09-17T05:53:11;10.40;99.90
52323;DHT22;38263;52.920;6.238;2022-09-17T05:55:37;10.40;99.90
52323;DHT22;38263;52.920;6.238;2022-09-17T06:00:35;10.40;99.90
52323;DHT22;38263;52.920;6.238;2022-09-17T06:03:01;10.50;99.90
52323;DHT22;38263;52.920;6.238;2022-09-17T06:05:27;10.50;99.90
52323;DHT22;38263;52.920;6.238;2022-09-17T06:07:52;10.50;99.90
52323;DHT22;38263;52.920;6.238;2022-09-17T06:10:18;10.60;99.90
52323;DHT22;38263;52.920;6.238;2022-09-17T06:12:44;10.70;99.90
52323;DHT22;38263;52.920;6.238;2022-09-17T06:15:09;10.50;99.90
52323;DHT22;38263;52.920;6.238;2022-09-17T06:17:39;10.90;99.90
52323;DHT22;38263;52.920;6.238;2022-09-17T06:20:05;10.90;99.90
52323;DHT22;38263;52.920;6.238;2022-09-17T06:22:31;11.20;99.90
52323;DHT22;38263;52.920;6.238;2022-09-17T06:24:57;11.20;99.90
52323;DHT22;38263;52.920;6.238;2022-09-17T06:27:29;11.30;99.90
52323;DHT22;38263;52.920;6.238;2022-09-17T06:29:55;11.40;99.90
52323;DHT22;38263;52.920;6.238;2022-09-17T06:32:20;11.50;99.90
52323;DHT22;38263;52.920;6.238;2022-09-17T06:34:46;11.70;99.90
52323;DHT22;38263;52.920;6.238;2022-09-17T06:37:12;11.70;99.90
52323;DHT22;38263;52.920;6.238;2022-09-17T06:39:38;11.60;99.90
52323;DHT22;38263;52.920;6.238;2022-09-17T06:42:04;11.70;99.90
52323;DHT22;38263;52.920;6.238;2022-09-17T06:44:30;11.60;99.90
52323;DHT22;38263;52.920;6.238;2022-09-17T06:46:56;11.50;99.90
52323;DHT22;38263;52.920;6.238;2022-09-17T06:49:21;11.60;99.90
52323;DHT22;38263;52.920;6.238;2022-09-17T06:51:47;11.50;99.90
52323;DHT22;38263;52.920;6.238;2022-09-17T06:54:12;11.60;99.90
52323;DHT22;38263;52.920;6.238;2022-09-17T06:56:38;11.70;99.90
52323;DHT22;38263;52.920;6.238;2022-09-17T06:59:03;11.60;99.90
52323;DHT22;38263;52.920;6.238;2022-09-17T07:01:29;11.70;99.90
52323;DHT22;38263;52.920;6.238;2022-09-17T07:03:54;11.80;99.90
52323;DHT22;38263;52.920;6.238;2022-09-17T07:06:20;11.80;99.90
52323;DHT22;38263;52.920;6.238;2022-09-17T07:11:12;11.80;99.90
52323;DHT22;38263;52.920;6.238;2022-09-17T07:13:38;11.80;99.90
52323;DHT22;38263;52.920;6.238;2022-09-17T07:16:05;12.00;99.90
52323;DHT22;38263;52.920;6.238;2022-09-17T07:18:31;11.90;99.90
52323;DHT22;38263;52.920;6.238;2022-09-17T07:20:58;12.20;99.90
52323;DHT22;38263;52.920;6.238;2022-09-17T07:23:26;12.30;99.90
52323;DHT22;38263;52.920;6.238;2022-09-17T07:25:53;12.30;99.90
52323;DHT22;38263;52.920;6.238;2022-09-17T07:28:20;12.40;99.90
52323;DHT22;38263;52.920;6.238;2022-09-17T07:30:47;12.40;99.90
52323;DHT22;38263;52.920;6.238;2022-09-17T07:33:17;12.50;99.90
52323;DHT22;38263;52.920;6.238;2022-09-17T07:35:58;12.60;99.90
52323;DHT22;38263;52.920;6.238;2022-09-17T07:38:24;12.70;99.90
52323;DHT22;38263;52.920;6.238;2022-09-17T07:41:03;12.80;99.90
52323;DHT22;38263;52.920;6.238;2022-09-17T07:43:31;12.80;99.90
52323;DHT22;38263;52.920;6.238;2022-09-17T07:45:58;12.80;99.90
52323;DHT22;38263;52.920;6.238;2022-09-17T07:48:24;12.90;99.90
52323;DHT22;38263;52.920;6.238;2022-09-17T07:50:50;12.60;99.90
52323;DHT22;38263;52.920;6.238;2022-09-17T07:53:16;12.70;99.90
52323;DHT22;38263;52.920;6.238;2022-09-17T08:00:34;12.50;99.90
52323;DHT22;38263;52.920;6.238;2022-09-17T08:02:59;12.40;99.90
52323;DHT22;38263;52.920;6.238;2022-09-17T08:05:25;12.30;99.90
52323;DHT22;38263;52.920;6.238;2022-09-17T08:07:53;12.40;99.90
52323;DHT22;38263;52.920;6.238;2022-09-17T08:10:20;12.20;99.90
52323;DHT22;38263;52.920;6.238;2022-09-17T08:12:54;12.40;99.90
52323;DHT22;38263;52.920;6.238;2022-09-17T08:15:20;12.30;99.90
52323;DHT22;38263;52.920;6.238;2022-09-17T08:17:46;12.40;99.90
52323;DHT22;38263;52.920;6.238;2022-09-17T08:20:13;12.40;99.90
52323;DHT22;38263;52.920;6.238;2022-09-17T08:22:39;12.20;99.90
52323;DHT22;38263;52.920;6.238;2022-09-17T08:25:06;12.40;99.90
52323;DHT22;38263;52.920;6.238;2022-09-17T08:27:32;12.60;99.90
52323;DHT22;38263;52.920;6.238;2022-09-17T08:29:57;12.90;99.90
52323;DHT22;38263;52.920;6.238;2022-09-17T08:32:24;12.90;99.90
52323;DHT22;38263;52.920;6.238;2022-09-17T08:34:49;13.10;99.90
52323;DHT22;38263;52.920;6.238;2022-09-17T08:37:15;13.10;99.90
52323;DHT22;38263;52.920;6.238;2022-09-17T08:39:41;13.30;99.90
52323;DHT22;38263;52.920;6.238;2022-09-17T08:42:19;13.20;99.90
52323;DHT22;38263;52.920;6.238;2022-09-17T08:44:47;13.20;99.90
52323;DHT22;38263;52.920;6.238;2022-09-17T08:47:24;13.10;99.90
52323;DHT22;38263;52.920;6.238;2022-09-17T08:50:06;12.90;99.90
52323;DHT22;38263;52.920;6.238;2022-09-17T08:55:55;12.80;99.90
52323;DHT22;38263;52.920;6.238;2022-09-17T08:58:41;13.30;99.90
52323;DHT22;38263;52.920;6.238;2022-09-17T09:07:05;16.50;99.90
52323;DHT22;38263;52.920;6.238;2022-09-17T09:09:45;16.60;99.90
52323;DHT22;38263;52.920;6.238;2022-09-17T09:12:20;16.20;99.90
52323;DHT22;38263;52.920;6.238;2022-09-17T09:14:51;16.50;99.90
52323;DHT22;38263;52.920;6.238;2022-09-17T09:17:22;16.10;99.90
52323;DHT22;38263;52.920;6.238;2022-09-17T09:19:50;15.80;99.90
52323;DHT22;38263;52.920;6.238;2022-09-17T09:25:15;15.50;99.90
52323;DHT22;38263;52.920;6.238;2022-09-17T09:28:27;15.10;99.90
52323;DHT22;38263;52.920;6.238;2022-09-17T09:31:20;14.30;99.90
52323;DHT22;38263;52.920;6.238;2022-09-17T09:33:48;14.00;99.90
52323;DHT22;38263;52.920;6.238;2022-09-17T09:36:16;13.80;99.90
52323;DHT22;38263;52.920;6.238;2022-09-17T09:39:02;13.60;99.90
52323;DHT22;38263;52.920;6.238;2022-09-17T09:42:10;13.50;99.90
52323;DHT22;38263;52.920;6.238;2022-09-17T09:44:38;13.40;99.90
52323;DHT22;38263;52.920;6.238;2022-09-17T09:47:52;13.40;99.90
52323;DHT22;38263;52.920;6.238;2022-09-17T09:53:50;13.50;99.90
52323;DHT22;38263;52.920;6.238;2022-09-17T09:58:43;13.30;99.90
52323;DHT22;38263;52.920;6.238;2022-09-17T10:01:17;13.20;99.90
52323;DHT22;38263;52.920;6.238;2022-09-17T10:03:48;13.10;99.90
52323;DHT22;38263;52.920;6.238;2022-09-17T10:06:16;13.00;99.90
52323;DHT22;38263;52.920;6.238;2022-09-17T10:11:22;13.10;99.90
52323;DHT22;38263;52.920;6.238;2022-09-17T10:13:48;13.10;99.90
52323;DHT22;38263;52.920;6.238;2022-09-17T10:16:22;13.40;99.90
52323;DHT22;38263;52.920;6.238;2022-09-17T10:18:49;13.30;99.90
52323;DHT22;38263;52.920;6.238;2022-09-17T10:23:57;13.40;99.90
52323;DHT22;38263;52.920;6.238;2022-09-17T10:26:34;13.40;99.90
52323;DHT22;38263;52.920;6.238;2022-09-17T10:29:15;13.10;99.90
52323;DHT22;38263;52.920;6.238;2022-09-17T10:31:59;13.20;99.90
52323;DHT22;38263;52.920;6.238;2022-09-17T10:36:52;13.50;99.90
52323;DHT22;38263;52.920;6.238;2022-09-17T10:39:31;13.70;99.90
52323;DHT22;38263;52.920;6.238;2022-09-17T10:44:36;13.90;99.90
52323;DHT22;38263;52.920;6.238;2022-09-17T10:47:12;14.00;99.90
52323;DHT22;38263;52.920;6.238;2022-09-17T10:49:44;14.00;99.90
52323;DHT22;38263;52.920;6.238;2022-09-17T10:52:12;14.10;99.90
52323;DHT22;38263;52.920;6.238;2022-09-17T10:54:52;14.30;99.90
52323;DHT22;38263;52.920;6.238;2022-09-17T10:57:35;14.30;99.90
52323;DHT22;38263;52.920;6.238;2022-09-17T11:00:16;14.50;99.90
52323;DHT22;38263;52.920;6.238;2022-09-17T11:02:53;14.60;99.90
52323;DHT22;38263;52.920;6.238;2022-09-17T11:14:06;14.60;99.90
52323;DHT22;38263;52.920;6.238;2022-09-17T11:16:38;14.70;99.90
52323;DHT22;38263;52.920;6.238;2022-09-17T11:19:26;14.70;99.90
52323;DHT22;38263;52.920;6.238;2022-09-17T11:30:13;13.60;99.90
52323;DHT22;38263;52.920;6.238;2022-09-17T11:33:14;13.40;99.90
52323;DHT22;38263;52.920;6.238;2022-09-17T11:35:51;13.40;99.90
52323;DHT22;38263;52.920;6.238;2022-09-17T11:38:28;13.40;99.90
52323;DHT22;38263;52.920;6.238;2022-09-17T11:41:07;13.50;99.90
52323;DHT22;38263;52.920;6.238;2022-09-17T11:43:37;13.50;99.90
52323;DHT22;38263;52.920;6.238;2022-09-17T11:46:15;13.70;99.90
52323;DHT22;38263;52.920;6.238;2022-09-17T11:49:04;14.00;99.90
52323;DHT22;38263;52.920;6.238;2022-09-17T11:51:37;14.00;99.90
52323;DHT22;38263;52.920;6.238;2022-09-17T11:54:27;14.00;99.90
52323;DHT22;38263;52.920;6.238;2022-09-17T11:57:20;13.90;99.90
52323;DHT22;38263;52.920;6.238;2022-09-17T12:02:20;13.60;99.90
52323;DHT22;38263;52.920;6.238;2022-09-17T12:05:03;13.70;99.90
52323;DHT22;38263;52.920;6.238;2022-09-17T12:13:31;13.80;99.90
52323;DHT22;38263;52.920;6.238;2022-09-17T12:16:19;13.80;99.90
52323;DHT22;38263;52.920;6.238;2022-09-17T12:19:01;13.70;99.90
52323;DHT22;38263;52.920;6.238;2022-09-17T12:21:36;13.70;99.90
52323;DHT22;38263;52.920;6.238;2022-09-17T12:24:21;13.90;99.90
52323;DHT22;38263;52.920;6.238;2022-09-17T12:38:06;14.10;99.90
52323;DHT22;38263;52.920;6.238;2022-09-17T12:46:42;14.70;99.90
52323;DHT22;38263;52.920;6.238;2022-09-17T12:49:44;14.90;99.90
52323;DHT22;38263;52.920;6.238;2022-09-17T12:55:58;14.60;99.90
52323;DHT22;38263;52.920;6.238;2022-09-17T13:01:40;14.40;99.90
52323;DHT22;38263;52.920;6.238;2022-09-17T13:04:28;14.40;99.90
52323;DHT22;38263;52.920;6.238;2022-09-17T13:21:09;14.30;99.90
52323;DHT22;38263;52.920;6.238;2022-09-17T13:23:43;14.70;99.90
52323;DHT22;38263;52.920;6.238;2022-09-17T13:26:11;14.60;99.90
52323;DHT22;38263;52.920;6.238;2022-09-17T13:28:50;14.60;99.90
52323;DHT22;38263;52.920;6.238;2022-09-17T13:36:53;14.50;99.90
52323;DHT22;38263;52.920;6.238;2022-09-17T13:39:38;14.60;99.90
52323;DHT22;38263;52.920;6.238;2022-09-17T13:42:24;14.50;99.90
52323;DHT22;38263;52.920;6.238;2022-09-17T13:45:12;14.70;99.90
52323;DHT22;38263;52.920;6.238;2022-09-17T13:48:02;14.70;99.90
52323;DHT22;38263;52.920;6.238;2022-09-17T13:50:34;14.80;99.90
52323;DHT22;38263;52.920;6.238;2022-09-17T13:55:46;14.40;99.90
52323;DHT22;38263;52.920;6.238;2022-09-17T14:05:54;13.70;99.90
52323;DHT22;38263;52.920;6.238;2022-09-17T14:13:50;13.80;99.90
52323;DHT22;38263;52.920;6.238;2022-09-17T14:18:59;13.90;99.90
52323;DHT22;38263;52.920;6.238;2022-09-17T14:21:29;13.80;99.90
52323;DHT22;38263;52.920;6.238;2022-09-17T14:23:57;13.70;99.90
52323;DHT22;38263;52.920;6.238;2022-09-17T14:26:36;13.60;99.90
52323;DHT22;38263;52.920;6.238;2022-09-17T14:31:38;13.30;99.90
52323;DHT22;38263;52.920;6.238;2022-09-17T14:34:07;13.50;99.90
52323;DHT22;38263;52.920;6.238;2022-09-17T14:36:36;13.70;99.90
52323;DHT22;38263;52.920;6.238;2022-09-17T14:39:08;13.80;99.90
52323;DHT22;38263;52.920;6.238;2022-09-17T14:41:39;13.60;99.90
52323;DHT22;38263;52.920;6.238;2022-09-17T14:46:40;13.70;99.90
52323;DHT22;38263;52.920;6.238;2022-09-17T14:49:27;13.80;99.90
52323;DHT22;38263;52.920;6.238;2022-09-17T14:51:57;13.90;99.90
52323;DHT22;38263;52.920;6.238;2022-09-17T14:54:33;13.80;99.90
52323;DHT22;38263;52.920;6.238;2022-09-17T14:59:51;14.10;99.90
52323;DHT22;38263;52.920;6.238;2022-09-17T15:02:39;14.40;99.90
52323;DHT22;38263;52.920;6.238;2022-09-17T15:05:22;14.20;99.90
52323;DHT22;38263;52.920;6.238;2022-09-17T15:10:20;14.70;99.90
52323;DHT22;38263;52.920;6.238;2022-09-17T15:12:47;14.80;99.90
52323;DHT22;38263;52.920;6.238;2022-09-17T15:15:19;14.90;99.90
52323;DHT22;38263;52.920;6.238;2022-09-17T15:17:46;15.30;99.90
52323;DHT22;38263;52.920;6.238;2022-09-17T15:20:20;16.10;99.90
52323;DHT22;38263;52.920;6.238;2022-09-17T15:23:33;16.10;99.90
52323;DHT22;38263;52.920;6.238;2022-09-17T15:25:41;15.80;99.90
52323;DHT22;38263;52.920;6.238;2022-09-17T15:30:49;19.60;99.90
52323;DHT22;38263;52.920;6.238;2022-09-17T15:33:15;20.20;99.90
52323;DHT22;38263;52.920;6.238;2022-09-17T15:36:30;20.40;99.90
52323;DHT22;38263;52.920;6.238;2022-09-17T15:38:50;19.60;99.90
52323;DHT22;38263;52.920;6.238;2022-09-17T15:41:33;18.70;99.90
52323;DHT22;38263;52.920;6.238;2022-09-17T15:44:22;18.20;99.90
52323;DHT22;38263;52.920;6.238;2022-09-17T15:46:48;16.90;99.90
52323;DHT22;38263;52.920;6.238;2022-09-17T15:49:33;16.40;99.90
52323;DHT22;38263;52.920;6.238;2022-09-17T15:54:43;15.70;99.90
52323;DHT22;38263;52.920;6.238;2022-09-17T15:57:14;15.40;99.90
52323;DHT22;38263;52.920;6.238;2022-09-17T15:59:40;15.30;99.90
52323;DHT22;38263;52.920;6.238;2022-09-17T16:02:29;15.30;99.90
52323;DHT22;38263;52.920;6.238;2022-09-17T16:07:39;15.20;99.90
52323;DHT22;38263;52.920;6.238;2022-09-17T16:10:06;15.20;99.90
52323;DHT22;38263;52.920;6.238;2022-09-17T16:12:32;14.80;99.90
52323;DHT22;38263;52.920;6.238;2022-09-17T16:14:58;14.60;99.90
52323;DHT22;38263;52.920;6.238;2022-09-17T16:24:58;13.80;99.90
52323;DHT22;38263;52.920;6.238;2022-09-17T16:27:27;13.70;99.90
52323;DHT22;38263;52.920;6.238;2022-09-17T16:30:04;13.80;99.90
52323;DHT22;38263;52.920;6.238;2022-09-17T16:32:30;13.60;99.90
52323;DHT22;38263;52.920;6.238;2022-09-17T16:42:14;13.40;99.90
52323;DHT22;38263;52.920;6.238;2022-09-17T16:44:39;13.60;99.90
52323;DHT22;38263;52.920;6.238;2022-09-17T16:51:56;13.60;99.90
52323;DHT22;38263;52.920;6.238;2022-09-17T16:54:22;13.60;99.90
52323;DHT22;38263;52.920;6.238;2022-09-17T16:59:14;13.50;99.90
52323;DHT22;38263;52.920;6.238;2022-09-17T17:01:39;13.40;99.90
52323;DHT22;38263;52.920;6.238;2022-09-17T17:04:05;13.40;99.90
52323;DHT22;38263;52.920;6.238;2022-09-17T17:06:31;13.20;99.90
52323;DHT22;38263;52.920;6.238;2022-09-17T17:08:57;13.30;99.90
52323;DHT22;38263;52.920;6.238;2022-09-17T17:11:26;13.30;99.90
52323;DHT22;38263;52.920;6.238;2022-09-17T17:13:53;13.30;99.90
52323;DHT22;38263;52.920;6.238;2022-09-17T17:16:20;13.10;99.90
52323;DHT22;38263;52.920;6.238;2022-09-17T17:21:13;13.20;99.90
52323;DHT22;38263;52.920;6.238;2022-09-17T17:23:39;12.90;99.90
52323;DHT22;38263;52.920;6.238;2022-09-17T17:26:04;12.70;99.90
52323;DHT22;38263;52.920;6.238;2022-09-17T17:28:34;12.60;99.90
52323;DHT22;38263;52.920;6.238;2022-09-17T17:35:53;12.50;99.90
52323;DHT22;38263;52.920;6.238;2022-09-17T17:38:19;12.30;99.90
52323;DHT22;38263;52.920;6.238;2022-09-17T17:43:11;12.50;99.90
52323;DHT22;38263;52.920;6.238;2022-09-17T17:45:38;12.30;99.90
52323;DHT22;38263;52.920;6.238;2022-09-17T17:48:04;12.10;99.90
52323;DHT22;38263;52.920;6.238;2022-09-17T17:50:31;12.10;99.90
52323;DHT22;38263;52.920;6.238;2022-09-17T17:55:23;12.20;99.90
52323;DHT22;38263;52.920;6.238;2022-09-17T17:57:55;12.10;99.90
52323;DHT22;38263;52.920;6.238;2022-09-17T18:02:49;11.70;99.90
52323;DHT22;38263;52.920;6.238;2022-09-17T18:12:32;11.80;99.90
52323;DHT22;38263;52.920;6.238;2022-09-17T18:17:24;11.80;99.90
52323;DHT22;38263;52.920;6.238;2022-09-17T18:19:49;11.80;99.90
52323;DHT22;38263;52.920;6.238;2022-09-17T18:22:16;11.90;99.90
52323;DHT22;38263;52.920;6.238;2022-09-17T18:29:34;11.80;99.90
52323;DHT22;38263;52.920;6.238;2022-09-17T18:32:00;11.80;99.90
52323;DHT22;38263;52.920;6.238;2022-09-17T18:39:18;11.90;99.90
52323;DHT22;38263;52.920;6.238;2022-09-17T18:41:45;11.90;99.90
52323;DHT22;38263;52.920;6.238;2022-09-17T18:44:11;11.90;99.90
52323;DHT22;38263;52.920;6.238;2022-09-17T18:46:37;11.90;99.90
52323;DHT22;38263;52.920;6.238;2022-09-17T18:49:03;11.90;99.90
52323;DHT22;38263;52.920;6.238;2022-09-17T18:51:30;11.80;99.90
52323;DHT22;38263;52.920;6.238;2022-09-17T18:53:57;11.90;99.90
52323;DHT22;38263;52.920;6.238;2022-09-17T18:56:25;11.90;99.90
52323;DHT22;38263;52.920;6.238;2022-09-17T18:58:52;11.70;99.90
52323;DHT22;38263;52.920;6.238;2022-09-17T19:01:20;11.60;99.90
52323;DHT22;38263;52.920;6.238;2022-09-17T19:06:13;11.60;99.90
52323;DHT22;38263;52.920;6.238;2022-09-17T19:08:43;11.60;99.90
52323;DHT22;38263;52.920;6.238;2022-09-17T19:11:09;11.70;99.90
52323;DHT22;38263;52.920;6.238;2022-09-17T19:13:40;11.80;99.90
52323;DHT22;38263;52.920;6.238;2022-09-17T19:16:07;11.70;99.90
52323;DHT22;38263;52.920;6.238;2022-09-17T19:18:34;11.70;99.90
52323;DHT22;38263;52.920;6.238;2022-09-17T19:21:15;11.60;99.90
52323;DHT22;38263;52.920;6.238;2022-09-17T19:23:41;11.60;99.90
52323;DHT22;38263;52.920;6.238;2022-09-17T19:26:12;11.80;99.90
52323;DHT22;38263;52.920;6.238;2022-09-17T19:28:38;11.60;99.90
52323;DHT22;38263;52.920;6.238;2022-09-17T19:31:09;11.60;99.90
52323;DHT22;38263;52.920;6.238;2022-09-17T19:33:35;11.50;99.90
52323;DHT22;38263;52.920;6.238;2022-09-17T19:36:06;11.60;99.90
52323;DHT22;38263;52.920;6.238;2022-09-17T19:38:32;11.50;99.90
52323;DHT22;38263;52.920;6.238;2022-09-17T19:41:03;11.40;99.90
52323;DHT22;38263;52.920;6.238;2022-09-17T19:43:29;11.40;99.90
52323;DHT22;38263;52.920;6.238;2022-09-17T19:48:28;11.30;99.90
52323;DHT22;38263;52.920;6.238;2022-09-17T19:55:46;11.40;99.90
52323;DHT22;38263;52.920;6.238;2022-09-17T19:58:12;11.30;99.90
52323;DHT22;38263;52.920;6.238;2022-09-17T20:00:38;11.50;99.90
52323;DHT22;38263;52.920;6.238;2022-09-17T20:03:04;11.40;99.90
52323;DHT22;38263;52.920;6.238;2022-09-17T20:05:30;11.30;99.90
52323;DHT22;38263;52.920;6.238;2022-09-17T20:07:56;11.10;99.90
52323;DHT22;38263;52.920;6.238;2022-09-17T20:10:22;11.30;99.90